Time;durP1;ratioP1;P1;durP2;ratioP2;P2;SDS_P1;SDS_P2;PMS_P1;PMS_P2;Temp;Humidity;BMP_temperature;BMP_pressure;BME280_temperature;BME280_humidity;BME280_pressure;Samples;Min_cycle;Max_cycle;Signal;HPM_P1;HPM_P2
2023/07/30 00:00:22;;;;;;;4.07;2.43;;;;;;;;;;5074208;28;20221;-84
2023/07/30 00:02:50;;;;;;;21.83;3.50;;;;;;;;;;5074508;28;20222;-84
2023/07/30 00:05:19;;;;;;;5.97;1.80;;;;;;;;;;5074149;28;20240;-84
2023/07/30 00:07:48;;;;;;;3.13;1.57;;;;;;;;;;5074048;28;20203;-86
2023/07/30 00:10:16;;;;;;;2.80;1.73;;;;;;;;;;5073948;28;20216;-86
2023/07/30 00:12:45;;;;;;;6.40;2.33;;;;;;;;;;5074308;28;20213;-86
2023/07/30 00:15:15;;;;;;;4.57;1.80;;;;;;;;;;5074336;28;20203;-86
2023/07/30 00:17:44;;;;;;;6.50;1.87;;;;;;;;;;5073664;28;20216;-86
2023/07/30 00:20:12;;;;;;;0.70;0.70;;;;;;;;;;5073857;28;20244;-86
2023/07/30 00:22:41;;;;;;;10.87;2.40;;;;;;;;;;5074169;28;20211;-84
2023/07/30 00:25:09;;;;;;;14.93;3.80;;;;;;;;;;5073694;28;20195;-84
2023/07/30 00:27:38;;;;;;;3.40;1.47;;;;;;;;;;5073300;28;20198;-84
2023/07/30 00:30:07;;;;;;;7.10;2.60;;;;;;;;;;5074167;28;20196;-84
2023/07/30 00:32:40;;;;;;;10.57;2.37;;;;;;;;;;5074326;28;20210;-83
2023/07/30 00:35:12;;;;;;;11.97;5.50;;;;;;;;;;5073069;28;20260;-83
2023/07/30 00:37:41;;;;;;;5.00;2.67;;;;;;;;;;5074209;28;20194;-84
2023/07/30 00:40:09;;;;;;;10.07;2.10;;;;;;;;;;5073395;28;20214;-84
2023/07/30 00:42:38;;;;;;;6.20;2.60;;;;;;;;;;5073639;28;20204;-84
2023/07/30 00:45:07;;;;;;;5.73;2.30;;;;;;;;;;5073362;28;20295;-84
2023/07/30 00:47:38;;;;;;;3.73;1.97;;;;;;;;;;5073957;28;20206;-84
2023/07/30 00:50:07;;;;;;;10.80;3.00;;;;;;;;;;5073796;28;20286;-84
2023/07/30 00:52:36;;;;;;;6.97;1.87;;;;;;;;;;5073643;28;20224;-84
2023/07/30 00:55:05;;;;;;;3.53;2.03;;;;;;;;;;5073322;28;20212;-84
2023/07/30 00:57:34;;;;;;;7.07;3.00;;;;;;;;;;5073478;28;20265;-84
2023/07/30 01:00:05;;;;;;;5.10;2.43;;;;;;;;;;5072923;28;20226;-84
2023/07/30 01:02:33;;;;;;;5.70;2.10;;;;;;;;;;5072684;28;20255;-84
2023/07/30 01:05:04;;;;;;;6.97;3.27;;;;;;;;;;5073563;28;20258;-86
2023/07/30 01:07:33;;;;;;;10.00;2.43;;;;;;;;;;5073391;28;20198;-86
2023/07/30 01:10:02;;;;;;;11.90;2.53;;;;;;;;;;5072540;28;20200;-86
2023/07/30 01:12:31;;;;;;;5.57;1.90;;;;;;;;;;5073046;28;20213;-86
2023/07/30 01:15:00;;;;;;;7.03;3.10;;;;;;;;;;5073092;28;20205;-86
2023/07/30 01:17:29;;;;;;;6.83;2.53;;;;;;;;;;5073994;28;20199;-87
2023/07/30 01:19:57;;;;;;;0.60;0.60;;;;;;;;;;5072416;28;20204;-86
2023/07/30 01:22:27;;;;;;;1.17;0.90;;;;;;;;;;5073026;28;20208;-86
2023/07/30 01:24:56;;;;;;;1.80;1.70;;;;;;;;;;5072839;28;20230;-84
2023/07/30 01:27:26;;;;;;;2.33;1.57;;;;;;;;;;5072243;28;20295;-84
2023/07/30 01:29:56;;;;;;;4.73;2.30;;;;;;;;;;5072793;28;20249;-84
2023/07/30 01:32:26;;;;;;;5.63;1.10;;;;;;;;;;5072479;28;20216;-84
2023/07/30 01:34:56;;;;;;;5.03;2.40;;;;;;;;;;5072673;28;20236;-84
2023/07/30 01:37:25;;;;;;;5.77;2.30;;;;;;;;;;5071682;28;20197;-84
2023/07/30 01:39:55;;;;;;;2.30;1.47;;;;;;;;;;5072449;28;20201;-83
2023/07/30 01:42:29;;;;;;;5.33;2.13;;;;;;;;;;5072265;28;20222;-84
2023/07/30 01:44:57;;;;;;;8.70;2.60;;;;;;;;;;5072761;28;20204;-84
2023/07/30 01:47:26;;;;;;;2.73;2.23;;;;;;;;;;5071939;28;20203;-84
2023/07/30 01:49:54;;;;;;;8.20;1.47;;;;;;;;;;5072638;28;20194;-84
2023/07/30 01:52:23;;;;;;;1.87;1.27;;;;;;;;;;5071576;28;20198;-84
2023/07/30 01:54:51;;;;;;;4.97;1.90;;;;;;;;;;5072027;28;20201;-86
2023/07/30 01:57:21;;;;;;;10.30;1.87;;;;;;;;;;5072119;28;20199;-86
2023/07/30 01:59:49;;;;;;;5.63;2.07;;;;;;;;;;5072194;28;20194;-86
2023/07/30 02:02:18;;;;;;;4.33;1.53;;;;;;;;;;5071740;28;20233;-87
2023/07/30 02:04:46;;;;;;;4.47;1.97;;;;;;;;;;5072204;28;20257;-87
2023/07/30 02:07:15;;;;;;;1.17;1.00;;;;;;;;;;5072077;28;20227;-87
2023/07/30 02:09:44;;;;;;;21.93;2.23;;;;;;;;;;5072263;28;20203;-86
2023/07/30 02:12:13;;;;;;;5.37;2.50;;;;;;;;;;5071589;28;20256;-84
2023/07/30 02:14:43;;;;;;;3.70;1.53;;;;;;;;;;5072103;28;20202;-84
2023/07/30 02:17:11;;;;;;;3.80;1.80;;;;;;;;;;5071919;28;20202;-84
2023/07/30 02:19:40;;;;;;;3.70;0.90;;;;;;;;;;5071379;28;20190;-84
2023/07/30 02:22:08;;;;;;;6.93;2.23;;;;;;;;;;5071140;28;20226;-84
2023/07/30 02:24:37;;;;;;;1.90;0.83;;;;;;;;;;5072034;28;20202;-84
2023/07/30 02:27:06;;;;;;;0.97;0.97;;;;;;;;;;5071808;28;20236;-84
2023/07/30 02:29:34;;;;;;;2.10;1.43;;;;;;;;;;5071584;28;20204;-83
2023/07/30 02:32:04;;;;;;;10.77;2.50;;;;;;;;;;5071790;28;20211;-83
2023/07/30 02:34:33;;;;;;;4.40;1.83;;;;;;;;;;5071505;28;20285;-84
2023/07/30 02:37:01;;;;;;;1.30;1.20;;;;;;;;;;5071786;28;20201;-83
2023/07/30 02:39:30;;;;;;;2.90;1.17;;;;;;;;;;5070979;28;20209;-84
2023/07/30 02:41:58;;;;;;;6.63;1.10;;;;;;;;;;5071503;28;20223;-84
2023/07/30 02:44:26;;;;;;;5.90;2.40;;;;;;;;;;5071840;28;20212;-84
2023/07/30 02:46:55;;;;;;;1.33;0.73;;;;;;;;;;5071409;28;20207;-84
2023/07/30 02:49:25;;;;;;;6.40;2.00;;;;;;;;;;5071550;28;20186;-84
2023/07/30 02:51:53;;;;;;;0.80;0.80;;;;;;;;;;5071556;28;20205;-84
2023/07/30 02:54:22;;;;;;;1.10;1.00;;;;;;;;;;5071409;28;20205;-84
2023/07/30 02:56:50;;;;;;;2.93;1.03;;;;;;;;;;5070994;28;20201;-84
2023/07/30 02:59:19;;;;;;;1.00;1.00;;;;;;;;;;5071240;28;20190;-84
2023/07/30 03:01:47;;;;;;;3.63;1.60;;;;;;;;;;5071419;28;20222;-83
2023/07/30 03:04:16;;;;;;;4.30;1.13;;;;;;;;;;5073988;28;20225;-84
2023/07/30 03:06:46;;;;;;;3.40;1.63;;;;;;;;;;5074943;28;20299;-84
2023/07/30 03:09:14;;;;;;;3.70;1.87;;;;;;;;;;5075704;28;20201;-84
2023/07/30 03:11:43;;;;;;;4.43;1.60;;;;;;;;;;5075264;28;20208;-84
2023/07/30 03:14:11;;;;;;;1.03;0.93;;;;;;;;;;5075132;28;20204;-84
2023/07/30 03:16:40;;;;;;;10.17;2.40;;;;;;;;;;5075548;28;20197;-84
2023/07/30 03:19:08;;;;;;;2.67;1.63;;;;;;;;;;5075450;28;20244;-84
2023/07/30 03:21:37;;;;;;;1.60;0.93;;;;;;;;;;5075427;28;20231;-86
2023/07/30 03:24:07;;;;;;;3.10;1.20;;;;;;;;;;5074944;28;20208;-86
2023/07/30 03:26:35;;;;;;;0.67;0.40;;;;;;;;;;5075777;28;20201;-86
2023/07/30 03:29:04;;;;;;;2.43;1.40;;;;;;;;;;5075104;28;20224;-86
2023/07/30 03:31:32;;;;;;;4.83;1.30;;;;;;;;;;5075000;28;20205;-86
2023/07/30 03:34:01;;;;;;;1.13;1.07;;;;;;;;;;5074642;28;20246;-86
2023/07/30 03:36:29;;;;;;;2.23;1.10;;;;;;;;;;5075108;28;20204;-86
2023/07/30 03:38:58;;;;;;;3.83;1.30;;;;;;;;;;5075021;28;20199;-86
2023/07/30 03:41:28;;;;;;;3.47;0.73;;;;;;;;;;5074291;28;20207;-83
2023/07/30 03:43:56;;;;;;;2.17;1.33;;;;;;;;;;5074850;28;20214;-84
2023/07/30 03:46:25;;;;;;;2.73;1.43;;;;;;;;;;5075637;28;20198;-84
2023/07/30 03:48:53;;;;;;;7.27;3.17;;;;;;;;;;5074010;28;20198;-83
2023/07/30 03:51:22;;;;;;;10.43;2.47;;;;;;;;;;5074567;28;20202;-86
2023/07/30 03:53:50;;;;;;;2.27;1.17;;;;;;;;;;5074308;28;20224;-86
2023/07/30 03:56:18;;;;;;;4.93;1.30;;;;;;;;;;5074510;28;20207;-86
2023/07/30 03:58:48;;;;;;;7.60;2.07;;;;;;;;;;5074167;28;20225;-87
2023/07/30 04:01:17;;;;;;;2.93;1.53;;;;;;;;;;5074513;28;20205;-86
2023/07/30 04:03:45;;;;;;;2.43;1.40;;;;;;;;;;5074313;28;20300;-85
2023/07/30 04:06:14;;;;;;;3.57;2.30;;;;;;;;;;5074041;28;20304;-87
2023/07/30 04:08:44;;;;;;;5.10;1.30;;;;;;;;;;5074104;28;20198;-86
2023/07/30 04:11:12;;;;;;;5.17;1.77;;;;;;;;;;5074328;28;20202;-86
2023/07/30 04:13:41;;;;;;;3.10;2.10;;;;;;;;;;5074050;28;20199;-86
2023/07/30 04:16:10;;;;;;;3.47;2.33;;;;;;;;;;5073269;28;20201;-86
2023/07/30 04:18:39;;;;;;;1.33;1.23;;;;;;;;;;5074545;28;20300;-84
2023/07/30 04:21:07;;;;;;;7.43;1.93;;;;;;;;;;5073998;28;20200;-84
2023/07/30 04:23:36;;;;;;;4.10;1.27;;;;;;;;;;5073810;28;20214;-84
2023/07/30 04:26:04;;;;;;;4.03;1.23;;;;;;;;;;5073517;28;20201;-84
2023/07/30 04:28:33;;;;;;;2.50;1.03;;;;;;;;;;5074233;28;20193;-84
2023/07/30 04:31:02;;;;;;;3.00;1.67;;;;;;;;;;5073434;28;20216;-83
2023/07/30 04:33:32;;;;;;;1.10;0.80;;;;;;;;;;5073336;28;20229;-83
2023/07/30 04:36:00;;;;;;;3.90;1.47;;;;;;;;;;5073603;28;20237;-83
2023/07/30 04:38:29;;;;;;;3.93;1.90;;;;;;;;;;5074071;28;20212;-84
2023/07/30 04:40:59;;;;;;;1.40;0.60;;;;;;;;;;5074077;28;20263;-84
2023/07/30 04:43:27;;;;;;;2.07;1.30;;;;;;;;;;5072920;28;20308;-84
2023/07/30 04:45:56;;;;;;;3.83;2.10;;;;;;;;;;5073867;28;20198;-84
2023/07/30 04:48:24;;;;;;;2.47;1.00;;;;;;;;;;5073571;28;20201;-84
2023/07/30 04:50:54;;;;;;;8.23;1.80;;;;;;;;;;5073208;28;20209;-84
2023/07/30 04:53:23;;;;;;;6.57;1.73;;;;;;;;;;5073156;28;20197;-84
2023/07/30 04:55:56;;;;;;;3.70;1.77;;;;;;;;;;5073430;28;20202;-84
2023/07/30 04:58:25;;;;;;;8.97;2.33;;;;;;;;;;5073318;28;20197;-84
2023/07/30 05:00:53;;;;;;;3.93;2.00;;;;;;;;;;5072743;28;20199;-84
2023/07/30 05:03:22;;;;;;;9.00;3.13;;;;;;;;;;5073591;28;20214;-84
2023/07/30 05:05:50;;;;;;;2.80;1.50;;;;;;;;;;5072764;28;20217;-84
2023/07/30 05:08:20;;;;;;;6.03;2.37;;;;;;;;;;5073281;28;20198;-84
2023/07/30 05:10:49;;;;;;;14.37;2.33;;;;;;;;;;5072798;28;20292;-84
2023/07/30 05:13:17;;;;;;;4.73;2.57;;;;;;;;;;5072555;28;20186;-84
2023/07/30 05:15:45;;;;;;;1.23;1.13;;;;;;;;;;5073187;28;20197;-84
2023/07/30 05:18:14;;;;;;;2.77;1.60;;;;;;;;;;5072520;28;20205;-84
2023/07/30 05:20:43;;;;;;;6.03;2.33;;;;;;;;;;5072846;28;20201;-83
2023/07/30 05:23:11;;;;;;;9.23;2.60;;;;;;;;;;5073057;28;20223;-84
2023/07/30 05:25:41;;;;;;;9.83;1.77;;;;;;;;;;5072651;28;20202;-84
2023/07/30 05:28:09;;;;;;;6.60;1.57;;;;;;;;;;5072690;28;20205;-84
2023/07/30 05:30:38;;;;;;;6.20;2.60;;;;;;;;;;5072793;28;20193;-84
2023/07/30 05:33:06;;;;;;;9.27;2.30;;;;;;;;;;5072827;28;20189;-83
2023/07/30 05:35:35;;;;;;;1.87;0.97;;;;;;;;;;5072056;28;20328;-83
2023/07/30 05:38:04;;;;;;;6.67;1.57;;;;;;;;;;5072569;28;20202;-84
2023/07/30 05:40:32;;;;;;;0.50;0.50;;;;;;;;;;5072874;28;20202;-86
2023/07/30 05:43:02;;;;;;;5.60;2.13;;;;;;;;;;5072066;28;20223;-86
2023/07/30 05:45:30;;;;;;;3.53;2.23;;;;;;;;;;5072222;28;20194;-86
2023/07/30 05:47:59;;;;;;;0.97;0.93;;;;;;;;;;5072370;28;20206;-86
2023/07/30 05:50:27;;;;;;;2.23;1.43;;;;;;;;;;5072813;28;20202;-84
2023/07/30 05:52:56;;;;;;;2.33;1.33;;;;;;;;;;5071922;28;20209;-84
2023/07/30 05:55:24;;;;;;;4.97;3.77;;;;;;;;;;5072089;28;20221;-84
2023/07/30 05:57:53;;;;;;;4.50;1.97;;;;;;;;;;5072773;28;20201;-84
2023/07/30 06:00:24;;;;;;;6.53;1.60;;;;;;;;;;5072137;28;20201;-84
2023/07/30 06:02:52;;;;;;;3.93;1.47;;;;;;;;;;5071501;28;20217;-84
2023/07/30 06:05:21;;;;;;;2.37;1.67;;;;;;;;;;5072881;28;20193;-84
2023/07/30 06:07:49;;;;;;;3.97;1.60;;;;;;;;;;5072014;28;20197;-86
2023/07/30 06:10:18;;;;;;;5.23;2.77;;;;;;;;;;5071966;28;20204;-86
2023/07/30 06:12:46;;;;;;;4.87;2.03;;;;;;;;;;5071868;28;20205;-86
2023/07/30 06:15:15;;;;;;;7.40;2.10;;;;;;;;;;5071961;28;20200;-86
2023/07/30 06:17:44;;;;;;;9.37;2.63;;;;;;;;;;5072323;28;20194;-86
2023/07/30 06:20:13;;;;;;;4.50;1.37;;;;;;;;;;5071574;28;20198;-86
2023/07/30 06:22:42;;;;;;;5.03;1.97;;;;;;;;;;5071671;28;20197;-86
2023/07/30 06:25:10;;;;;;;3.40;1.57;;;;;;;;;;5071706;28;20201;-86
2023/07/30 06:27:38;;;;;;;2.80;2.57;;;;;;;;;;5071959;28;20199;-84
2023/07/30 06:30:07;;;;;;;2.43;1.23;;;;;;;;;;5071739;28;20210;-83
2023/07/30 06:32:36;;;;;;;8.03;1.10;;;;;;;;;;5071875;28;20194;-84
2023/07/30 06:35:06;;;;;;;5.57;1.53;;;;;;;;;;5071819;28;20225;-84
2023/07/30 06:37:35;;;;;;;2.57;0.90;;;;;;;;;;5070947;28;20240;-84
2023/07/30 06:40:06;;;;;;;5.03;2.03;;;;;;;;;;5071929;28;20202;-84
2023/07/30 06:42:34;;;;;;;1.60;1.13;;;;;;;;;;5071707;28;20201;-84
2023/07/30 06:45:03;;;;;;;4.90;3.17;;;;;;;;;;5072027;28;20269;-84
2023/07/30 06:47:31;;;;;;;2.43;1.53;;;;;;;;;;5071209;28;20306;-84
2023/07/30 06:50:09;;;;;;;6.33;2.17;;;;;;;;;;5071915;28;20297;-84
2023/07/30 06:52:37;;;;;;;12.17;1.67;;;;;;;;;;5071480;28;20284;-84
2023/07/30 06:55:06;;;;;;;4.47;1.10;;;;;;;;;;5071015;28;20207;-84
2023/07/30 06:57:34;;;;;;;2.57;1.50;;;;;;;;;;5071590;28;20200;-84
2023/07/30 07:00:04;;;;;;;10.43;1.77;;;;;;;;;;5071512;28;20207;-84
2023/07/30 07:02:33;;;;;;;6.30;1.30;;;;;;;;;;5071588;28;20204;-84
2023/07/30 07:05:02;;;;;;;1.10;1.10;;;;;;;;;;5070767;28;20211;-83
2023/07/30 07:07:32;;;;;;;1.00;1.00;;;;;;;;;;5071737;28;20216;-87
2023/07/30 07:10:00;;;;;;;2.50;2.07;;;;;;;;;;5071319;28;20200;-86
2023/07/30 07:12:29;;;;;;;4.60;2.20;;;;;;;;;;5071338;28;20233;-86
2023/07/30 07:15:01;;;;;;;4.97;1.63;;;;;;;;;;5070986;28;20256;-86
2023/07/30 07:17:29;;;;;;;4.70;2.77;;;;;;;;;;5071456;28;20226;-86
2023/07/30 07:19:58;;;;;;;4.17;1.70;;;;;;;;;;5071829;28;20263;-90
2023/07/30 07:22:47;;;;;;;7.07;2.50;;;;;;;;;;5079640;28;20198;-95
2023/07/30 07:29:09;;;;;;;8.10;2.40;;;;;;;;;;5062476;28;20289;-88
2023/07/30 07:37:59;;;;;;;1.20;1.10;;;;;;;;;;5009435;28;20245;-90
2023/07/30 07:41:05;;;;;;;6.07;1.77;;;;;;;;;;5009716;28;20204;-91
2023/07/30 07:47:03;;;;;;;0.80;0.80;;;;;;;;;;5009247;28;20250;-89
2023/07/30 07:53:32;;;;;;;4.30;1.20;;;;;;;;;;4925786;29;20233;-89
2023/07/30 07:59:04;;;;;;;7.03;1.23;;;;;;;;;;5000023;28;20306;-88
2023/07/30 08:02:14;;;;;;;3.17;2.87;;;;;;;;;;5011025;28;20269;-88
2023/07/30 08:04:59;;;;;;;4.27;2.00;;;;;;;;;;5012189;28;20223;-89
2023/07/30 08:07:35;;;;;;;4.63;1.80;;;;;;;;;;5012586;28;20283;-88
2023/07/30 08:10:04;;;;;;;6.73;1.90;;;;;;;;;;5012443;28;20199;-88
2023/07/30 08:12:49;;;;;;;5.50;1.63;;;;;;;;;;5012494;28;20211;-88
2023/07/30 08:18:05;;;;;;;3.40;1.80;;;;;;;;;;5064171;28;20205;-88
2023/07/30 08:20:34;;;;;;;1.27;1.17;;;;;;;;;;5074897;28;20214;-89
2023/07/30 08:23:05;;;;;;;5.37;2.50;;;;;;;;;;5074331;28;20209;-89
2023/07/30 08:25:34;;;;;;;3.20;1.87;;;;;;;;;;5074456;28;20221;-89
2023/07/30 08:28:03;;;;;;;9.20;1.93;;;;;;;;;;5074933;28;20222;-89
2023/07/30 08:30:33;;;;;;;8.83;2.87;;;;;;;;;;5074512;28;20194;-90
2023/07/30 08:33:01;;;;;;;3.60;1.20;;;;;;;;;;5073918;28;20213;-89
2023/07/30 08:35:30;;;;;;;5.60;2.93;;;;;;;;;;5073819;28;20222;-89
2023/07/30 08:37:58;;;;;;;5.20;1.93;;;;;;;;;;5074690;28;20210;-88
2023/07/30 08:40:27;;;;;;;1.87;1.27;;;;;;;;;;5073996;28;20220;-88
2023/07/30 08:42:56;;;;;;;0.87;0.87;;;;;;;;;;5074012;28;20200;-88
2023/07/30 08:45:24;;;;;;;5.47;2.03;;;;;;;;;;5074008;28;20266;-88
2023/07/30 08:47:54;;;;;;;6.83;2.00;;;;;;;;;;5073752;28;20194;-88
2023/07/30 08:50:23;;;;;;;7.70;2.40;;;;;;;;;;5073117;28;20189;-87
2023/07/30 08:52:52;;;;;;;7.57;2.57;;;;;;;;;;5074074;28;20296;-87
2023/07/30 08:55:21;;;;;;;5.63;2.57;;;;;;;;;;5073894;28;20205;-87
2023/07/30 08:57:51;;;;;;;12.47;3.13;;;;;;;;;;5073190;28;20198;-85
2023/07/30 09:00:20;;;;;;;5.27;4.00;;;;;;;;;;5073303;28;20201;-87
2023/07/30 09:02:50;;;;;;;8.40;3.23;;;;;;;;;;5072778;28;20194;-87
2023/07/30 09:05:21;;;;;;;8.73;2.10;;;;;;;;;;5073421;28;20243;-84
2023/07/30 09:07:49;;;;;;;3.73;1.37;;;;;;;;;;5072726;28;20258;-84
2023/07/30 09:10:18;;;;;;;7.40;3.10;;;;;;;;;;5073505;28;20198;-84
2023/07/30 09:12:47;;;;;;;2.30;1.40;;;;;;;;;;5073222;28;20225;-84
2023/07/30 09:15:16;;;;;;;7.77;3.10;;;;;;;;;;5073225;28;20198;-84
2023/07/30 09:17:45;;;;;;;3.77;1.70;;;;;;;;;;5072735;28;20205;-84
2023/07/30 09:20:13;;;;;;;10.10;2.80;;;;;;;;;;5072766;28;20221;-85
2023/07/30 09:22:43;;;;;;;5.03;1.30;;;;;;;;;;5072792;28;20198;-84
2023/07/30 09:25:15;;;;;;;4.47;1.77;;;;;;;;;;5072182;28;20209;-85
2023/07/30 09:27:44;;;;;;;5.17;1.93;;;;;;;;;;5072633;28;20202;-84
2023/07/30 09:30:13;;;;;;;2.80;1.83;;;;;;;;;;5072528;28;20194;-84
2023/07/30 09:32:41;;;;;;;2.60;1.20;;;;;;;;;;5072330;28;20203;-84
2023/07/30 09:35:11;;;;;;;7.93;3.37;;;;;;;;;;5072641;28;20230;-85
2023/07/30 09:37:40;;;;;;;7.77;1.83;;;;;;;;;;5072743;28;20216;-85
2023/07/30 09:40:11;;;;;;;8.90;3.03;;;;;;;;;;5072961;28;20206;-84
2023/07/30 09:42:40;;;;;;;2.60;2.00;;;;;;;;;;5072191;28;20244;-84
2023/07/30 09:45:10;;;;;;;4.27;1.40;;;;;;;;;;5072507;28;20213;-84
2023/07/30 09:47:38;;;;;;;2.10;1.57;;;;;;;;;;5072854;28;20237;-84
2023/07/30 09:50:07;;;;;;;6.27;1.73;;;;;;;;;;5072554;28;20226;-84
2023/07/30 09:52:36;;;;;;;7.20;2.17;;;;;;;;;;5072463;28;20213;-87
2023/07/30 09:55:11;;;;;;;8.17;2.87;;;;;;;;;;5072746;28;20255;-86
2023/07/30 09:57:41;;;;;;;5.33;1.83;;;;;;;;;;5072894;28;20204;-83
2023/07/30 10:00:11;;;;;;;7.93;2.20;;;;;;;;;;5072049;28;20197;-84
2023/07/30 10:02:40;;;;;;;6.97;3.20;;;;;;;;;;5072055;28;20300;-85
2023/07/30 10:05:13;;;;;;;4.33;1.83;;;;;;;;;;5072367;28;20228;-84
2023/07/30 10:07:48;;;;;;;5.23;2.17;;;;;;;;;;5072073;28;20215;-84
2023/07/30 10:10:16;;;;;;;3.83;1.33;;;;;;;;;;5072000;28;20211;-84
2023/07/30 10:12:47;;;;;;;11.10;2.90;;;;;;;;;;5071582;28;20264;-83
2023/07/30 10:15:19;;;;;;;6.13;2.60;;;;;;;;;;5072158;28;20203;-84
2023/07/30 10:17:48;;;;;;;4.23;1.80;;;;;;;;;;5071758;28;20221;-84
2023/07/30 10:20:21;;;;;;;4.67;1.90;;;;;;;;;;5071941;28;20232;-84
2023/07/30 10:22:53;;;;;;;13.90;3.37;;;;;;;;;;5072791;28;20288;-89
2023/07/30 10:25:22;;;;;;;4.27;2.30;;;;;;;;;;5072621;28;20231;-89
2023/07/30 10:27:52;;;;;;;4.77;2.80;;;;;;;;;;5072120;28;20212;-88
2023/07/30 10:30:22;;;;;;;6.90;1.97;;;;;;;;;;5072502;28;20306;-88
2023/07/30 10:33:01;;;;;;;5.20;1.90;;;;;;;;;;5071921;28;20292;-86
2023/07/30 10:35:38;;;;;;;7.10;2.27;;;;;;;;;;5071580;28;20242;-83
2023/07/30 10:38:20;;;;;;;8.10;1.83;;;;;;;;;;5071898;28;20272;-89
2023/07/30 10:41:03;;;;;;;7.43;2.40;;;;;;;;;;5072262;28;20197;-88
2023/07/30 10:43:35;;;;;;;7.23;1.43;;;;;;;;;;5069614;28;20224;-88
2023/07/30 10:46:04;;;;;;;4.67;1.60;;;;;;;;;;5071910;28;20221;-87
2023/07/30 10:48:34;;;;;;;6.67;1.60;;;;;;;;;;5072419;28;20197;-88
2023/07/30 10:51:03;;;;;;;8.00;2.73;;;;;;;;;;5072778;28;20279;-91
2023/07/30 10:53:31;;;;;;;6.50;2.67;;;;;;;;;;5071809;28;20225;-90
2023/07/30 10:56:02;;;;;;;6.23;2.70;;;;;;;;;;5071921;28;20212;-90
2023/07/30 10:58:34;;;;;;;7.57;2.03;;;;;;;;;;5072286;28;20256;-88
2023/07/30 11:01:05;;;;;;;11.63;2.03;;;;;;;;;;5071717;28;20197;-87
2023/07/30 11:03:34;;;;;;;4.40;1.80;;;;;;;;;;5071678;28;20229;-85
2023/07/30 11:06:03;;;;;;;6.10;2.30;;;;;;;;;;5071604;28;20264;-85
2023/07/30 11:08:35;;;;;;;8.87;3.03;;;;;;;;;;5071729;28;20198;-85
2023/07/30 11:11:03;;;;;;;5.60;3.03;;;;;;;;;;5071191;28;20208;-83
2023/07/30 11:13:36;;;;;;;4.43;1.40;;;;;;;;;;5071584;28;20199;-84
2023/07/30 11:16:07;;;;;;;8.13;2.63;;;;;;;;;;5071925;28;20206;-82
2023/07/30 11:18:36;;;;;;;4.60;2.13;;;;;;;;;;5072089;28;20217;-82
2023/07/30 11:21:05;;;;;;;3.63;1.17;;;;;;;;;;5071029;28;20199;-81
2023/07/30 11:23:34;;;;;;;1.50;1.40;;;;;;;;;;5071339;28;20204;-82
2023/07/30 11:26:03;;;;;;;2.67;2.07;;;;;;;;;;5075572;28;20230;-81
2023/07/30 11:28:33;;;;;;;3.37;1.60;;;;;;;;;;5074628;28;20227;-81
2023/07/30 11:31:07;;;;;;;4.13;1.60;;;;;;;;;;5075179;28;20199;-82
2023/07/30 11:33:36;;;;;;;11.10;2.63;;;;;;;;;;5074795;28;20245;-81
2023/07/30 11:36:09;;;;;;;7.47;2.40;;;;;;;;;;5075063;28;20236;-82
2023/07/30 11:38:38;;;;;;;5.47;2.20;;;;;;;;;;5074658;28;20201;-82
2023/07/30 11:41:09;;;;;;;3.67;1.90;;;;;;;;;;5074991;28;20199;-82
2023/07/30 11:43:39;;;;;;;6.47;2.43;;;;;;;;;;5074707;28;20208;-82
2023/07/30 11:46:13;;;;;;;9.37;2.50;;;;;;;;;;5074412;28;20221;-82
2023/07/30 11:48:42;;;;;;;6.90;2.80;;;;;;;;;;5074618;28;20267;-82
2023/07/30 11:51:19;;;;;;;13.53;2.47;;;;;;;;;;5074777;28;20203;-82
2023/07/30 11:53:49;;;;;;;6.43;3.33;;;;;;;;;;5074615;28;20295;-82
2023/07/30 11:56:22;;;;;;;7.07;2.27;;;;;;;;;;5074421;28;20200;-82
2023/07/30 11:58:51;;;;;;;8.00;2.13;;;;;;;;;;5074395;28;20199;-82
2023/07/30 12:01:21;;;;;;;6.27;2.30;;;;;;;;;;5074827;28;20270;-82
2023/07/30 12:03:49;;;;;;;3.53;1.57;;;;;;;;;;5073753;28;20257;-82
2023/07/30 12:06:18;;;;;;;7.57;1.90;;;;;;;;;;5074454;28;20228;-82
2023/07/30 12:08:50;;;;;;;8.63;2.10;;;;;;;;;;5074317;28;20200;-82
2023/07/30 12:11:19;;;;;;;8.90;3.37;;;;;;;;;;5074655;28;20208;-81
2023/07/30 12:13:50;;;;;;;5.20;2.10;;;;;;;;;;5073365;28;20211;-81
2023/07/30 12:16:19;;;;;;;3.53;2.20;;;;;;;;;;5074422;28;20257;-82
2023/07/30 12:18:51;;;;;;;6.57;2.67;;;;;;;;;;5073893;28;20235;-82
2023/07/30 12:21:19;;;;;;;5.77;2.47;;;;;;;;;;5073600;28;20200;-82
2023/07/30 12:23:48;;;;;;;5.50;1.87;;;;;;;;;;5073659;28;20199;-88
2023/07/30 12:26:16;;;;;;;11.63;2.37;;;;;;;;;;5074565;28;20222;-88
2023/07/30 12:28:45;;;;;;;10.43;2.53;;;;;;;;;;5074282;28;20207;-88
2023/07/30 12:31:13;;;;;;;3.87;1.70;;;;;;;;;;5073805;28;20210;-88
2023/07/30 12:33:42;;;;;;;5.37;1.87;;;;;;;;;;5073920;28;20196;-87
2023/07/30 12:36:11;;;;;;;3.77;1.83;;;;;;;;;;5073194;28;20231;-88
2023/07/30 12:38:40;;;;;;;7.23;1.80;;;;;;;;;;5073863;28;20214;-88
2023/07/30 12:41:11;;;;;;;7.40;2.30;;;;;;;;;;5073765;28;20270;-88
2023/07/30 12:43:39;;;;;;;9.10;3.00;;;;;;;;;;5073434;28;20203;-87
2023/07/30 12:46:08;;;;;;;1.90;1.20;;;;;;;;;;5074054;28;20204;-87
2023/07/30 12:48:36;;;;;;;4.53;2.03;;;;;;;;;;5073245;28;20197;-87
2023/07/30 12:51:05;;;;;;;2.60;1.23;;;;;;;;;;5073912;28;20206;-88
2023/07/30 12:53:35;;;;;;;4.67;1.43;;;;;;;;;;5073658;28;20288;-88
2023/07/30 12:56:03;;;;;;;5.67;2.20;;;;;;;;;;5073234;28;20198;-87
2023/07/30 12:58:32;;;;;;;9.20;1.47;;;;;;;;;;5073215;28;20195;-88
2023/07/30 13:01:00;;;;;;;5.50;2.10;;;;;;;;;;5073735;28;20234;-87
2023/07/30 13:03:28;;;;;;;7.97;2.60;;;;;;;;;;5073317;28;20210;-87
2023/07/30 13:05:57;;;;;;;8.27;2.63;;;;;;;;;;5073481;28;20218;-88
2023/07/30 13:08:26;;;;;;;7.73;1.23;;;;;;;;;;5073009;28;20223;-88
2023/07/30 13:10:56;;;;;;;2.80;1.57;;;;;;;;;;5073247;28;20203;-88
2023/07/30 13:13:24;;;;;;;10.20;3.03;;;;;;;;;;5073326;28;20201;-87
2023/07/30 13:15:57;;;;;;;5.37;1.53;;;;;;;;;;5072388;28;20196;-87
2023/07/30 13:18:26;;;;;;;2.87;1.27;;;;;;;;;;5073374;28;20286;-87
2023/07/30 13:20:54;;;;;;;5.53;2.47;;;;;;;;;;5073100;28;20198;-88
2023/07/30 13:23:25;;;;;;;5.80;2.40;;;;;;;;;;5072629;28;20197;-87
2023/07/30 13:25:53;;;;;;;1.83;1.33;;;;;;;;;;5072804;28;20205;-82
2023/07/30 13:28:23;;;;;;;3.80;1.93;;;;;;;;;;5072789;28;20215;-82
2023/07/30 13:30:52;;;;;;;1.73;1.33;;;;;;;;;;5072645;28;20227;-87
2023/07/30 13:33:21;;;;;;;4.93;1.63;;;;;;;;;;5072072;28;20194;-88
2023/07/30 13:35:50;;;;;;;7.47;3.63;;;;;;;;;;5072548;28;20262;-87
2023/07/30 13:38:21;;;;;;;3.80;2.37;;;;;;;;;;5073414;28;20229;-88
2023/07/30 13:40:49;;;;;;;8.07;2.93;;;;;;;;;;5072560;28;20236;-87
2023/07/30 13:43:18;;;;;;;6.97;2.43;;;;;;;;;;5072687;28;20204;-87
2023/07/30 13:45:50;;;;;;;5.43;1.47;;;;;;;;;;5072654;28;20205;-87
2023/07/30 13:48:18;;;;;;;1.97;1.43;;;;;;;;;;5071957;28;20262;-87
2023/07/30 13:50:47;;;;;;;2.93;1.33;;;;;;;;;;5072328;28;20262;-88
2023/07/30 13:53:15;;;;;;;4.67;1.40;;;;;;;;;;5072389;28;20227;-88
2023/07/30 13:55:44;;;;;;;8.03;2.10;;;;;;;;;;5072679;28;20216;-88
2023/07/30 13:58:12;;;;;;;5.87;2.73;;;;;;;;;;5072323;28;20200;-88
2023/07/30 14:00:42;;;;;;;7.27;1.57;;;;;;;;;;5071710;28;20207;-87
2023/07/30 14:03:13;;;;;;;3.60;1.93;;;;;;;;;;5072303;28;20205;-87
2023/07/30 14:05:41;;;;;;;3.00;0.97;;;;;;;;;;5071951;28;20223;-88
2023/07/30 14:08:10;;;;;;;1.70;1.00;;;;;;;;;;5071430;28;20208;-87
2023/07/30 14:10:40;;;;;;;8.00;2.20;;;;;;;;;;5072533;28;20196;-87
2023/07/30 14:13:08;;;;;;;6.20;2.70;;;;;;;;;;5072125;28;20204;-87
2023/07/30 14:15:37;;;;;;;8.43;1.83;;;;;;;;;;5072118;28;20204;-87
2023/07/30 14:18:05;;;;;;;3.87;2.10;;;;;;;;;;5072068;28;20200;-87
2023/07/30 14:20:37;;;;;;;6.00;1.60;;;;;;;;;;5072534;28;20199;-88
2023/07/30 14:23:06;;;;;;;4.43;1.50;;;;;;;;;;5072103;28;20212;-88
2023/07/30 14:25:34;;;;;;;6.77;2.87;;;;;;;;;;5071965;28;20313;-87
2023/07/30 14:28:03;;;;;;;5.90;2.10;;;;;;;;;;5071765;28;20214;-88
2023/07/30 14:30:31;;;;;;;6.80;2.37;;;;;;;;;;5072210;28;20211;-87
2023/07/30 14:33:00;;;;;;;7.57;2.67;;;;;;;;;;5072073;28;20212;-88
2023/07/30 14:35:28;;;;;;;5.07;2.10;;;;;;;;;;5071455;28;20286;-88
2023/07/30 14:37:58;;;;;;;3.27;1.37;;;;;;;;;;5071889;28;20205;-87
2023/07/30 14:40:27;;;;;;;14.60;3.77;;;;;;;;;;5072313;28;20208;-87
2023/07/30 14:42:55;;;;;;;3.37;1.90;;;;;;;;;;5071291;28;20269;-87
2023/07/30 14:45:24;;;;;;;6.20;2.27;;;;;;;;;;5071633;28;20218;-87
2023/07/30 14:47:52;;;;;;;6.33;1.87;;;;;;;;;;5071842;28;20225;-81
2023/07/30 14:50:21;;;;;;;5.07;2.13;;;;;;;;;;5071640;28;20209;-82
2023/07/30 14:52:49;;;;;;;7.93;2.43;;;;;;;;;;5070819;28;20200;-82
2023/07/30 14:55:19;;;;;;;5.80;2.53;;;;;;;;;;5071779;28;20206;-82
2023/07/30 14:57:47;;;;;;;4.77;3.03;;;;;;;;;;5071753;28;20197;-82
2023/07/30 15:00:16;;;;;;;11.20;3.73;;;;;;;;;;5073910;28;20198;-82
2023/07/30 15:02:45;;;;;;;9.57;1.90;;;;;;;;;;5075230;28;20228;-88
2023/07/30 15:05:13;;;;;;;5.77;2.07;;;;;;;;;;5075976;28;20204;-82
2023/07/30 15:07:42;;;;;;;9.20;2.40;;;;;;;;;;5075545;28;20275;-82
2023/07/30 15:10:11;;;;;;;3.30;2.23;;;;;;;;;;5075390;28;20202;-82
2023/07/30 15:12:41;;;;;;;13.00;3.50;;;;;;;;;;5075072;28;20200;-82
2023/07/30 15:15:10;;;;;;;11.17;2.87;;;;;;;;;;5075282;28;20268;-82
2023/07/30 15:17:38;;;;;;;4.97;2.23;;;;;;;;;;5075640;28;20202;-82